createdAt,value
2023-03-11T00:00:47.406Z,71.45
2023-03-11T00:05:53.822Z,71.40
2023-03-11T00:11:00.755Z,70.11
2023-03-11T00:16:04.667Z,70.81
2023-03-11T00:21:16.321Z,71.76
2023-03-11T00:26:20.047Z,70.66
2023-03-11T00:31:23.560Z,70.84
2023-03-11T00:36:31.694Z,71.45
2023-03-11T00:41:35.607Z,70.20
2023-03-11T00:46:39.140Z,70.33
2023-03-11T00:51:45.114Z,70.38
2023-03-11T00:56:48.610Z,71.44
2023-03-11T01:01:52.222Z,70.67
2023-03-11T01:06:57.031Z,71.34
2023-03-11T01:12:00.631Z,70.78
2023-03-11T01:17:04.103Z,70.61
2023-03-11T01:22:10.323Z,70.42
2023-03-11T01:27:13.921Z,71.44
2023-03-11T01:32:17.438Z,71.02
2023-03-11T01:37:22.359Z,70.79
2023-03-11T01:42:26.061Z,70.63
2023-03-11T01:47:40.687Z,71.23
2023-03-11T01:52:46.293Z,70.75
2023-03-11T01:57:50.204Z,70.92
2023-03-11T02:02:56.169Z,70.82
2023-03-11T02:08:01.735Z,70.57
2023-03-11T02:13:05.311Z,71.81
2023-03-11T02:18:09.416Z,71.59
2023-03-11T02:23:15.894Z,71.73
2023-03-11T02:28:21.509Z,71.74
2023-03-11T02:33:26.719Z,71.55
2023-03-11T02:38:30.193Z,71.88
2023-03-11T02:43:40.724Z,70.99
2023-03-11T02:48:44.815Z,71.17
2023-03-11T02:53:51.028Z,71.75
2023-03-11T02:58:55.906Z,71.54
2023-03-11T03:03:59.429Z,71.65
2023-03-11T03:09:02.982Z,70.41
2023-03-11T03:14:07.864Z,70.94
2023-03-11T03:19:11.396Z,70.32
2023-03-11T03:24:14.845Z,71.82
2023-03-11T03:29:19.794Z,71.07
2023-03-11T03:34:23.300Z,71.73
2023-03-11T03:39:28.741Z,71.89
2023-03-11T03:44:35.022Z,72.06
2023-03-11T03:49:38.493Z,71.93
2023-03-11T03:54:41.958Z,71.78
2023-03-11T03:59:46.800Z,72.14
2023-03-11T04:04:50.325Z,70.95
2023-03-11T04:09:53.763Z,71.72
2023-03-11T04:14:58.687Z,71.70
2023-03-11T04:20:02.202Z,71.19
2023-03-11T04:25:06.351Z,70.55
2023-03-11T04:30:13.023Z,71.83
2023-03-11T04:35:16.500Z,72.09
2023-03-11T04:40:20.165Z,72.32
2023-03-11T04:45:25.104Z,71.61
2023-03-11T04:50:28.666Z,71.39
2023-03-11T04:55:33.537Z,72.23
2023-03-11T05:00:38.335Z,72.18
2023-03-11T05:05:41.691Z,70.78
2023-03-11T05:10:45.051Z,72.10
2023-03-11T05:15:50.036Z,71.12
2023-03-11T05:20:53.650Z,71.09
2023-03-11T05:25:57.026Z,72.05
2023-03-11T05:31:01.874Z,70.99
2023-03-11T05:36:06.971Z,71.90
2023-03-11T05:41:10.369Z,70.87
2023-03-11T05:46:15.197Z,70.90
2023-03-11T05:51:18.613Z,70.62
2023-03-11T05:56:23.208Z,70.62
2023-03-11T06:01:28.041Z,71.91
2023-03-11T06:06:31.514Z,70.61
2023-03-11T06:11:34.929Z,71.20
2023-03-11T06:16:39.721Z,72.09
2023-03-11T06:21:43.252Z,70.70
2023-03-11T06:26:46.972Z,71.81
2023-03-11T06:31:51.863Z,71.47
2023-03-11T06:36:55.989Z,71.74
2023-03-11T06:41:59.350Z,70.45
2023-03-11T06:47:05.291Z,70.69
2023-03-11T06:52:08.860Z,70.17
2023-03-11T06:57:12.533Z,70.57
2023-03-11T07:02:18.808Z,70.63
2023-03-11T07:07:22.195Z,71.42
2023-03-11T07:12:25.695Z,70.79
2023-03-11T07:17:30.590Z,70.91
2023-03-11T07:22:33.952Z,71.21
2023-03-11T07:27:37.353Z,71.49
2023-03-11T07:32:42.940Z,71.45
2023-03-11T07:37:46.350Z,70.98
2023-03-11T07:42:49.768Z,71.03
2023-03-11T07:47:54.650Z,70.12
2023-03-11T07:52:58.049Z,71.32
2023-03-11T07:58:01.442Z,70.41
2023-03-11T08:03:06.413Z,70.69
2023-03-11T08:08:09.781Z,71.35
2023-03-11T08:13:13.347Z,70.82
2023-03-11T08:18:18.130Z,71.86
2023-03-11T08:23:21.463Z,70.22
2023-03-11T08:28:24.856Z,70.43
2023-03-11T08:33:29.677Z,71.05
2023-03-11T08:38:33.465Z,69.96
2023-03-11T08:43:37.048Z,70.73
2023-03-11T08:48:41.832Z,71.04
2023-03-11T08:53:45.416Z,71.21
2023-03-11T08:58:49.122Z,71.70
2023-03-11T09:03:54.053Z,70.97
2023-03-11T09:08:57.632Z,71.50
2023-03-11T09:14:01.014Z,70.79
2023-03-11T09:19:07.680Z,71.88
2023-03-11T09:24:11.158Z,71.27
2023-03-11T09:29:14.555Z,71.60
2023-03-11T09:34:19.529Z,71.21
2023-03-11T09:39:23.190Z,70.77
2023-03-11T09:44:30.990Z,71.88
2023-03-11T09:49:56.545Z,70.85
2023-03-11T09:55:01.174Z,70.62
2023-03-11T10:00:06.759Z,71.02
2023-03-11T10:05:16.272Z,71.87
2023-03-11T10:10:19.887Z,71.71
2023-03-11T10:15:28.189Z,71.69
2023-03-11T10:20:39.971Z,71.71
2023-03-11T10:25:51.700Z,71.24
2023-03-11T10:30:57.798Z,72.25
2023-03-11T10:36:07.612Z,70.49
2023-03-11T10:41:17.397Z,70.45
2023-03-11T10:46:22.461Z,69.44
2023-03-11T10:51:28.898Z,71.33
2023-03-11T10:56:34.082Z,70.95
2023-03-11T11:01:37.606Z,70.67
2023-03-11T11:06:42.532Z,70.05
2023-03-11T11:12:03.490Z,69.23
2023-03-11T11:17:06.972Z,69.75
2023-03-11T11:22:15.688Z,67.91
2023-03-11T11:27:21.980Z,67.45
2023-03-11T11:32:27.362Z,68.03
2023-03-11T11:37:34.826Z,67.53
2023-03-11T11:42:39.734Z,67.28
2023-03-11T11:47:45.544Z,67.53
2023-03-11T11:52:54.397Z,67.97
2023-03-11T11:57:58.494Z,67.80
2023-03-11T12:03:27.115Z,67.62
2023-03-11T12:08:37.951Z,67.66
2023-03-11T12:13:51.176Z,67.94
2023-03-11T12:18:58.356Z,67.28
2023-03-11T12:24:14.223Z,68.18
2023-03-11T12:29:25.978Z,68.38
2023-03-11T12:34:30.057Z,67.59
2023-03-11T12:39:35.887Z,67.95
2023-03-11T12:44:39.832Z,68.31
2023-03-11T12:49:44.321Z,68.42
2023-03-11T12:54:49.699Z,68.41
2023-03-11T13:00:12.579Z,68.35
2023-03-11T13:05:23.068Z,68.59
2023-03-11T13:10:40.167Z,68.83
2023-03-11T13:15:43.606Z,68.70
2023-03-11T13:20:56.261Z,68.99
2023-03-11T13:26:13.092Z,68.51
2023-03-11T13:31:25.775Z,68.68
2023-03-11T13:36:52.714Z,68.79
2023-03-11T13:41:57.732Z,68.06
2023-03-11T13:47:05.997Z,68.98
2023-03-11T13:52:11.219Z,68.33
2023-03-11T13:57:25.591Z,68.64
2023-03-11T14:02:29.223Z,68.09
2023-03-11T14:07:35.384Z,68.04
2023-03-11T14:12:40.646Z,68.35
2023-03-11T14:17:45.299Z,68.25
2023-03-11T14:22:51.671Z,67.76
2023-03-11T14:27:58.424Z,67.75
2023-03-11T14:33:03.951Z,67.42
2023-03-11T15:12:50.060Z,68.49
2023-03-11T15:17:54.716Z,68.64
2023-03-11T15:23:01.392Z,67.88
2023-03-11T15:28:25.497Z,67.93
2023-03-11T15:33:34.694Z,67.89
2023-03-11T15:38:38.160Z,67.38
2023-03-11T15:43:46.991Z,67.68
2023-03-11T15:48:50.623Z,67.54
2023-03-11T15:53:54.484Z,67.04
2023-03-11T15:58:59.372Z,67.10
2023-03-11T16:04:03.142Z,67.23
2023-03-11T16:09:06.594Z,66.50
2023-03-11T16:14:17.160Z,66.75
2023-03-11T16:19:20.525Z,67.50
2023-03-11T16:24:25.088Z,67.01
2023-03-11T16:29:30.723Z,66.31
2023-03-11T16:34:35.114Z,65.35
2023-03-11T16:39:39.082Z,66.92
2023-03-11T16:44:43.841Z,66.91
2023-03-11T16:49:50.531Z,66.74
2023-03-11T16:54:53.872Z,66.63
2023-03-11T16:59:58.709Z,66.74
2023-03-11T17:05:03.114Z,66.48
2023-03-11T17:10:07.670Z,65.71
2023-03-11T17:15:12.881Z,66.06
2023-03-11T17:20:16.250Z,66.23
2023-03-11T17:40:59.333Z,66.38
2023-03-11T17:46:02.698Z,66.54
2023-03-11T17:51:07.411Z,67.64
2023-03-11T17:56:12.917Z,67.18
2023-03-11T18:01:17.492Z,67.26
2023-03-11T18:06:21.804Z,66.73
2023-03-11T18:11:28.301Z,67.60
2023-03-11T18:16:33.822Z,66.81
2023-03-11T18:21:37.263Z,66.61
2023-03-11T18:26:42.051Z,68.13
2023-03-11T18:31:45.425Z,67.25
2023-03-11T18:36:49.565Z,66.88
2023-03-11T18:41:54.394Z,67.62
2023-03-11T18:46:57.724Z,67.78
2023-03-11T18:52:01.102Z,68.04
2023-03-11T18:57:05.901Z,68.29
2023-03-11T19:02:10.692Z,67.17
2023-03-11T19:07:14.230Z,67.38
2023-03-11T19:12:18.992Z,68.33
2023-03-11T19:17:22.382Z,69.04
2023-03-11T19:22:25.924Z,68.79
2023-03-11T19:27:30.698Z,68.23
2023-03-11T19:32:34.100Z,69.14
2023-03-11T19:37:37.462Z,70.02
2023-03-11T19:42:42.291Z,68.63
2023-03-11T19:47:50.118Z,69.34
2023-03-11T19:52:53.559Z,68.62
2023-03-11T19:57:58.314Z,69.32
2023-03-11T20:03:02.879Z,68.79
2023-03-11T20:08:07.495Z,69.33
2023-03-11T20:13:12.487Z,68.66
2023-03-11T20:18:16.014Z,69.08
2023-03-11T20:23:19.397Z,68.87
2023-03-11T20:28:24.256Z,68.51
2023-03-11T20:33:27.714Z,69.58
2023-03-11T20:38:31.135Z,68.76
2023-03-11T20:43:36.567Z,69.80
2023-03-11T20:48:40.100Z,69.99
2023-03-11T20:53:43.809Z,70.04
2023-03-11T20:58:51.138Z,69.03
2023-03-11T21:03:55.372Z,69.10
2023-03-11T21:09:00.539Z,69.05
2023-03-11T21:14:05.895Z,69.28
2023-03-11T21:19:11.623Z,70.23
2023-03-11T21:24:15.414Z,70.34
2023-03-11T21:29:20.354Z,69.55
2023-03-11T21:34:23.774Z,69.81
2023-03-11T21:39:27.323Z,69.47
2023-03-11T21:44:32.290Z,70.32
2023-03-11T21:49:36.027Z,70.14
2023-03-11T21:54:39.469Z,70.10
2023-03-11T21:59:44.261Z,70.96
2023-03-11T22:04:48.601Z,70.80
2023-03-11T22:09:53.437Z,70.93
2023-03-11T22:14:58.380Z,70.70
2023-03-11T22:20:01.956Z,71.60
2023-03-11T22:25:05.713Z,71.71
2023-03-11T22:30:11.888Z,71.63
2023-03-11T22:35:15.447Z,71.24
2023-03-11T22:40:18.937Z,71.35
2023-03-11T22:45:23.828Z,72.20
2023-03-11T22:50:27.209Z,72.49
2023-03-11T22:55:30.571Z,72.55
2023-03-11T23:00:36.828Z,72.07
2023-03-11T23:05:42.247Z,72.27
2023-03-11T23:10:47.863Z,72.38
2023-03-11T23:15:52.697Z,71.71
2023-03-11T23:20:56.171Z,71.63
2023-03-11T23:25:59.560Z,71.32
2023-03-11T23:31:05.446Z,71.72
2023-03-11T23:36:10.630Z,70.76
2023-03-11T23:41:15.710Z,70.86
2023-03-11T23:46:20.868Z,70.85
2023-03-11T23:51:24.393Z,70.94
2023-03-11T23:56:27.728Z,70.42
